Time;durP1;ratioP1;P1;durP2;ratioP2;P2;SDS_P1;SDS_P2;PMS_P1;PMS_P2;Temp;Humidity;BMP_temperature;BMP_pressure;BME280_temperature;BME280_humidity;BME280_pressure;Samples;Min_cycle;Max_cycle;Signal;HPM_P1;HPM_P2
2021/06/11 00:01:38;;;;;;;;;;;13.20;99.90;;;;;;5086645;28;19977;-70
2021/06/11 00:04:04;;;;;;;;;;;13.20;99.90;;;;;;5096044;28;20366;-69
2021/06/11 00:06:31;;;;;;;;;;;13.20;99.90;;;;;;5099522;28;20284;-70
2021/06/11 00:08:56;;;;;;;;;;;13.20;99.90;;;;;;5091016;28;19912;-70
2021/06/11 00:11:22;;;;;;;;;;;13.10;99.90;;;;;;5090998;28;19908;-70
2021/06/11 00:13:47;;;;;;;;;;;13.10;99.90;;;;;;5085249;28;20380;-70
2021/06/11 00:16:13;;;;;;;;;;;13.10;99.90;;;;;;5079847;28;20040;-70
2021/06/11 00:18:38;;;;;;;;;;;13.10;99.90;;;;;;5088317;28;19916;-70
2021/06/11 00:21:04;;;;;;;;;;;13.10;99.90;;;;;;5086443;28;19916;-68
2021/06/11 00:23:29;;;;;;;;;;;13.10;99.90;;;;;;5082683;28;19915;-70
2021/06/11 00:25:55;;;;;;;;;;;13.10;99.90;;;;;;5093698;28;20314;-70
2021/06/11 00:28:20;;;;;;;;;;;13.10;99.90;;;;;;5078224;28;19923;-69
2021/06/11 00:30:46;;;;;;;;;;;13.10;99.90;;;;;;5085080;28;19912;-70
2021/06/11 00:33:12;;;;;;;;;;;13.10;99.90;;;;;;5090399;28;19908;-70
2021/06/11 00:35:37;;;;;;;;;;;13.10;99.90;;;;;;5092781;28;20756;-69
2021/06/11 00:38:03;;;;;;;;;;;13.10;99.90;;;;;;5078569;28;20004;-70
2021/06/11 00:40:29;;;;;;;;;;;13.20;99.90;;;;;;5074183;28;19931;-70
2021/06/11 00:42:55;;;;;;;;;;;13.10;99.90;;;;;;5073954;28;19934;-70
2021/06/11 00:45:20;;;;;;;;;;;13.10;99.90;;;;;;5073708;28;20007;-70
2021/06/11 00:47:46;;;;;;;;;;;13.00;99.90;;;;;;5073176;28;19988;-70
2021/06/11 00:50:13;;;;;;;;;;;13.10;99.90;;;;;;5074175;28;19913;-70
2021/06/11 00:52:40;;;;;;;;;;;13.10;99.90;;;;;;5074040;28;19908;-70
2021/06/11 00:55:06;;;;;;;;;;;13.10;99.90;;;;;;5073909;28;19995;-70
2021/06/11 00:57:31;;;;;;;;;;;13.10;99.90;;;;;;5073107;28;19908;-70
2021/06/11 00:59:57;;;;;;;;;;;13.10;99.90;;;;;;5074614;28;19966;-69
2021/06/11 01:02:23;;;;;;;;;;;13.10;99.90;;;;;;5076862;28;19963;-70
2021/06/11 01:04:49;;;;;;;;;;;13.00;99.90;;;;;;5073739;28;19996;-70
2021/06/11 01:07:15;;;;;;;;;;;13.00;99.90;;;;;;5072897;28;20377;-71
2021/06/11 01:09:41;;;;;;;;;;;13.00;99.90;;;;;;5073656;28;19912;-70
2021/06/11 01:12:07;;;;;;;;;;;13.10;99.90;;;;;;5073873;28;19909;-70
2021/06/11 01:14:33;;;;;;;;;;;13.10;99.90;;;;;;5073285;28;19946;-70
2021/06/11 01:17:00;;;;;;;;;;;13.10;99.90;;;;;;5072692;28;19952;-70
2021/06/11 01:19:31;;;;;;;;;;;13.10;99.90;;;;;;5073496;28;19913;-68
2021/06/11 01:22:05;;;;;;;;;;;13.00;99.90;;;;;;5073326;28;19916;-71
2021/06/11 01:24:33;;;;;;;;;;;13.00;99.90;;;;;;5073123;28;19909;-70
2021/06/11 01:27:00;;;;;;;;;;;13.00;99.90;;;;;;5072445;28;20050;-70
2021/06/11 01:29:27;;;;;;;;;;;13.00;99.90;;;;;;5070597;28;19919;-69
2021/06/11 01:31:54;;;;;;;;;;;13.00;99.90;;;;;;5091769;28;19968;-70
2021/06/11 01:34:19;;;;;;;;;;;12.90;99.90;;;;;;5081246;28;19913;-70
2021/06/11 01:36:46;;;;;;;;;;;12.90;99.90;;;;;;5072188;28;19919;-70
2021/06/11 01:39:14;;;;;;;;;;;12.90;99.90;;;;;;5079871;28;20280;-68
2021/06/11 01:41:40;;;;;;;;;;;12.80;99.90;;;;;;5092744;28;19916;-68
2021/06/11 01:44:07;;;;;;;;;;;12.80;99.90;;;;;;5092987;28;20276;-70
2021/06/11 01:46:34;;;;;;;;;;;12.80;99.90;;;;;;5090328;28;19952;-70
2021/06/11 01:49:00;;;;;;;;;;;12.80;99.90;;;;;;5092070;28;19921;-70
2021/06/11 01:51:26;;;;;;;;;;;12.80;99.90;;;;;;5092661;28;20622;-70
2021/06/11 01:53:52;;;;;;;;;;;12.80;99.90;;;;;;5092849;28;19942;-70
2021/06/11 01:56:18;;;;;;;;;;;12.70;99.90;;;;;;5090282;28;19912;-70
2021/06/11 01:58:44;;;;;;;;;;;12.70;99.90;;;;;;5088791;28;19908;-70
2021/06/11 02:01:10;;;;;;;;;;;12.60;99.90;;;;;;5085862;28;19923;-70
2021/06/11 02:03:36;;;;;;;;;;;12.60;99.90;;;;;;5091580;28;19918;-70
2021/06/11 02:06:02;;;;;;;;;;;12.70;99.90;;;;;;5085011;28;19916;-70
2021/06/11 02:08:28;;;;;;;;;;;12.70;99.90;;;;;;5073368;28;20425;-70
2021/06/11 02:10:54;;;;;;;;;;;12.50;99.90;;;;;;5072174;28;19912;-70
2021/06/11 02:13:20;;;;;;;;;;;12.40;99.90;;;;;;5091953;28;19912;-70
2021/06/11 02:15:46;;;;;;;;;;;12.40;99.90;;;;;;5085582;28;20073;-70
2021/06/11 02:18:12;;;;;;;;;;;12.40;99.90;;;;;;5073213;28;20323;-70
2021/06/11 02:20:38;;;;;;;;;;;12.50;99.90;;;;;;5073543;28;20267;-70
2021/06/11 02:23:04;;;;;;;;;;;12.50;99.90;;;;;;5072610;28;19916;-70
2021/06/11 02:25:30;;;;;;;;;;;12.50;99.90;;;;;;5070463;28;19916;-70
2021/06/11 02:27:56;;;;;;;;;;;12.50;99.90;;;;;;5080331;28;19919;-70
2021/06/11 02:30:21;;;;;;;;;;;12.50;99.90;;;;;;5086721;28;19970;-69
2021/06/11 02:32:47;;;;;;;;;;;12.50;99.90;;;;;;5091133;28;19912;-69
2021/06/11 02:35:14;;;;;;;;;;;12.50;99.90;;;;;;5087736;28;19920;-68
2021/06/11 02:37:40;;;;;;;;;;;12.60;99.90;;;;;;5089408;28;19912;-70
2021/06/11 02:40:07;;;;;;;;;;;12.50;99.90;;;;;;5076418;28;19920;-70
2021/06/11 02:42:32;;;;;;;;;;;12.50;99.90;;;;;;5075512;28;19947;-70
2021/06/11 02:45:01;;;;;;;;;;;12.50;99.90;;;;;;5086838;28;19919;-70
2021/06/11 02:47:39;;;;;;;;;;;12.50;99.90;;;;;;5081420;28;19917;-70
2021/06/11 02:50:11;;;;;;;;;;;12.50;99.90;;;;;;5090795;28;19912;-71
2021/06/11 02:52:40;;;;;;;;;;;12.40;99.90;;;;;;5091788;28;20365;-70
2021/06/11 02:55:06;;;;;;;;;;;12.40;99.90;;;;;;5091633;28;19915;-68
2021/06/11 02:57:35;;;;;;;;;;;12.40;99.90;;;;;;5081015;28;19931;-70
2021/06/11 03:00:04;;;;;;;;;;;12.40;99.90;;;;;;5082921;28;19958;-70
2021/06/11 03:02:32;;;;;;;;;;;12.40;99.90;;;;;;5090730;28;19912;-70
2021/06/11 03:04:59;;;;;;;;;;;12.40;99.90;;;;;;5091141;28;20398;-69
2021/06/11 03:07:28;;;;;;;;;;;12.30;99.90;;;;;;5090574;28;20292;-70
2021/06/11 03:09:56;;;;;;;;;;;12.30;99.90;;;;;;5083690;28;20274;-70
2021/06/11 03:12:22;;;;;;;;;;;12.30;99.90;;;;;;5086519;28;19912;-70
2021/06/11 03:14:48;;;;;;;;;;;12.30;99.90;;;;;;5077482;28;20393;-70
2021/06/11 03:17:16;;;;;;;;;;;12.30;99.90;;;;;;5072211;28;19912;-69
2021/06/11 03:19:46;;;;;;;;;;;12.40;99.90;;;;;;5071969;28;20018;-70
2021/06/11 03:22:17;;;;;;;;;;;12.50;99.90;;;;;;5073661;28;19920;-70
2021/06/11 03:24:49;;;;;;;;;;;12.50;99.90;;;;;;5074059;28;20277;-70
2021/06/11 03:27:26;;;;;;;;;;;12.50;99.90;;;;;;5075496;28;19912;-70
2021/06/11 03:29:57;;;;;;;;;;;12.50;99.90;;;;;;5074960;28;19912;-70
2021/06/11 03:32:28;;;;;;;;;;;12.40;99.90;;;;;;5083092;28;20377;-71
2021/06/11 03:34:55;;;;;;;;;;;12.40;99.90;;;;;;5071674;28;19916;-70
2021/06/11 03:37:22;;;;;;;;;;;12.50;99.90;;;;;;5081555;28;19916;-70
2021/06/11 03:39:49;;;;;;;;;;;12.50;99.90;;;;;;5090324;28;19923;-70
2021/06/11 03:42:15;;;;;;;;;;;12.40;99.90;;;;;;5081924;28;19913;-68
2021/06/11 03:44:47;;;;;;;;;;;12.40;99.90;;;;;;5085351;28;19920;-69
2021/06/11 03:47:13;;;;;;;;;;;12.30;99.90;;;;;;5087686;28;20902;-71
2021/06/11 03:49:39;;;;;;;;;;;12.20;99.90;;;;;;5070854;28;20234;-70
2021/06/11 03:52:05;;;;;;;;;;;12.30;99.90;;;;;;5081540;28;20099;-69
2021/06/11 03:54:31;;;;;;;;;;;12.20;99.90;;;;;;5091418;28;19970;-68
2021/06/11 03:56:58;;;;;;;;;;;12.20;99.90;;;;;;5086840;28;19912;-70
2021/06/11 03:59:24;;;;;;;;;;;12.30;99.90;;;;;;5085768;28;19912;-68
2021/06/11 04:01:50;;;;;;;;;;;12.30;99.90;;;;;;5093309;28;19919;-69
2021/06/11 04:04:15;;;;;;;;;;;12.30;99.90;;;;;;5085579;28;19951;-68
2021/06/11 04:06:42;;;;;;;;;;;12.30;99.90;;;;;;5090653;28;19955;-70
2021/06/11 04:09:09;;;;;;;;;;;12.30;99.90;;;;;;5091435;28;19912;-70
2021/06/11 04:11:37;;;;;;;;;;;12.40;99.90;;;;;;5085990;28;20007;-70
2021/06/11 04:14:03;;;;;;;;;;;12.40;99.90;;;;;;5076361;28;19920;-71
2021/06/11 04:16:36;;;;;;;;;;;12.50;99.90;;;;;;5084640;28;19920;-70
2021/06/11 04:19:02;;;;;;;;;;;12.50;99.90;;;;;;5082200;28;19939;-69
2021/06/11 04:21:29;;;;;;;;;;;12.50;99.90;;;;;;5083184;28;19963;-69
2021/06/11 04:23:57;;;;;;;;;;;12.50;99.90;;;;;;5087186;28;19922;-70
2021/06/11 04:26:25;;;;;;;;;;;12.60;99.90;;;;;;5085411;28;19912;-70
2021/06/11 04:28:51;;;;;;;;;;;12.70;99.90;;;;;;5088362;28;20365;-70
2021/06/11 04:31:17;;;;;;;;;;;12.80;99.90;;;;;;5093395;28;19908;-70
2021/06/11 04:33:43;;;;;;;;;;;12.90;99.90;;;;;;5088898;28;19966;-70
2021/06/11 04:36:09;;;;;;;;;;;13.00;99.90;;;;;;5085070;28;19919;-69
2021/06/11 04:39:01;;;;;;;;;;;13.10;99.90;;;;;;5085932;28;19958;-70
2021/06/11 04:41:28;;;;;;;;;;;13.20;99.90;;;;;;5090853;28;19916;-69
2021/06/11 04:43:55;;;;;;;;;;;13.30;99.90;;;;;;5093796;28;19908;-70
2021/06/11 04:46:21;;;;;;;;;;;13.40;99.90;;;;;;5090752;28;19916;-70
2021/06/11 04:48:46;;;;;;;;;;;13.50;99.90;;;;;;5093608;28;19915;-69
2021/06/11 04:51:12;;;;;;;;;;;13.60;99.90;;;;;;5093779;28;19907;-70
2021/06/11 04:53:37;;;;;;;;;;;13.60;99.90;;;;;;5093765;28;19908;-70
2021/06/11 04:56:07;;;;;;;;;;;13.60;99.90;;;;;;5084722;28;19913;-70
2021/06/11 04:58:33;;;;;;;;;;;13.80;99.90;;;;;;5074257;28;20288;-70
2021/06/11 05:00:59;;;;;;;;;;;13.90;99.90;;;;;;5091177;28;20050;-70
2021/06/11 05:03:24;;;;;;;;;;;13.90;99.90;;;;;;5091066;28;19943;-69
2021/06/11 05:05:50;;;;;;;;;;;14.00;99.90;;;;;;5077618;28;19927;-70
2021/06/11 05:08:15;;;;;;;;;;;14.10;99.90;;;;;;5080144;28;20296;-70
2021/06/11 05:10:41;;;;;;;;;;;14.20;99.90;;;;;;5077986;28;19912;-70
2021/06/11 05:13:06;;;;;;;;;;;14.30;99.90;;;;;;5086401;28;19912;-69
2021/06/11 05:15:32;;;;;;;;;;;14.40;99.90;;;;;;5082099;28;19959;-68
2021/06/11 05:18:04;;;;;;;;;;;14.60;99.90;;;;;;5078097;28;19960;-70
2021/06/11 05:20:29;;;;;;;;;;;14.60;99.90;;;;;;5068162;28;19982;-70
2021/06/11 05:22:55;;;;;;;;;;;14.80;99.90;;;;;;5069259;28;20365;-70
2021/06/11 05:25:20;;;;;;;;;;;15.00;99.90;;;;;;5070848;28;19991;-70
2021/06/11 05:27:46;;;;;;;;;;;15.10;99.90;;;;;;5069733;28;19981;-70
2021/06/11 05:30:12;;;;;;;;;;;15.20;99.90;;;;;;5077966;28;20415;-70
2021/06/11 05:32:37;;;;;;;;;;;15.40;99.90;;;;;;5090714;28;19915;-70
2021/06/11 05:35:03;;;;;;;;;;;15.60;99.90;;;;;;5092030;28;19960;-70
2021/06/11 05:37:28;;;;;;;;;;;15.90;99.90;;;;;;5092474;28;19912;-70
2021/06/11 05:39:54;;;;;;;;;;;16.10;99.90;;;;;;5093198;28;19937;-70
2021/06/11 05:42:20;;;;;;;;;;;16.30;99.90;;;;;;5093367;28;19937;-70
2021/06/11 05:44:45;;;;;;;;;;;16.40;99.90;;;;;;5093251;28;19976;-70
2021/06/11 05:47:10;;;;;;;;;;;16.50;99.90;;;;;;5092169;28;19919;-70
2021/06/11 05:49:36;;;;;;;;;;;16.50;99.90;;;;;;5093106;28;19931;-70
2021/06/11 05:52:02;;;;;;;;;;;16.60;99.90;;;;;;5093079;28;19916;-68
2021/06/11 05:54:27;;;;;;;;;;;16.80;99.90;;;;;;5093129;28;20009;-70
2021/06/11 05:56:55;;;;;;;;;;;17.10;99.90;;;;;;5092277;28;19915;-71
2021/06/11 05:59:21;;;;;;;;;;;17.50;99.90;;;;;;5084499;28;19912;-70
2021/06/11 06:01:46;;;;;;;;;;;18.00;99.90;;;;;;5092544;28;19934;-70
2021/06/11 06:04:12;;;;;;;;;;;18.40;99.90;;;;;;5092824;28;19907;-70
2021/06/11 06:06:37;;;;;;;;;;;18.80;99.90;;;;;;5091991;28;19912;-70
2021/06/11 06:09:03;;;;;;;;;;;19.10;99.90;;;;;;5092795;28;20373;-70
2021/06/11 06:11:28;;;;;;;;;;;19.50;99.90;;;;;;5092809;28;19974;-70
2021/06/11 06:13:54;;;;;;;;;;;19.90;99.90;;;;;;5092744;28;19950;-67
2021/06/11 06:16:20;;;;;;;;;;;20.10;99.90;;;;;;5091484;28;20327;-70
2021/06/11 06:18:45;;;;;;;;;;;19.90;99.90;;;;;;5091851;28;19908;-71
2021/06/11 06:21:11;;;;;;;;;;;19.80;99.90;;;;;;5092393;28;19912;-70
2021/06/11 06:23:36;;;;;;;;;;;20.20;99.90;;;;;;5092145;28;19908;-71
2021/06/11 06:26:02;;;;;;;;;;;20.50;99.90;;;;;;5091647;28;19915;-70
2021/06/11 06:28:27;;;;;;;;;;;21.00;99.90;;;;;;5090822;28;19961;-71
2021/06/11 06:30:53;;;;;;;;;;;21.50;99.90;;;;;;5085433;28;19976;-71
2021/06/11 06:33:19;;;;;;;;;;;21.90;99.90;;;;;;5092224;28;19914;-69
2021/06/11 06:35:44;;;;;;;;;;;22.30;99.90;;;;;;5091225;28;20315;-71
2021/06/11 06:38:11;;;;;;;;;;;22.60;99.90;;;;;;5092223;28;19914;-69
2021/06/11 06:40:37;;;;;;;;;;;22.70;99.90;;;;;;5091774;28;19924;-69
2021/06/11 06:43:02;;;;;;;;;;;22.70;99.90;;;;;;5091483;28;19908;-70
2021/06/11 06:45:28;;;;;;;;;;;23.00;99.90;;;;;;5091001;28;19969;-71
2021/06/11 06:47:53;;;;;;;;;;;23.20;99.90;;;;;;5090355;28;19909;-71
2021/06/11 06:50:19;;;;;;;;;;;23.50;99.90;;;;;;5091170;28;19948;-69
2021/06/11 06:52:45;;;;;;;;;;;23.80;99.90;;;;;;5091357;28;20393;-69
2021/06/11 06:55:11;;;;;;;;;;;24.10;99.90;;;;;;5091327;28;19919;-71
2021/06/11 06:57:36;;;;;;;;;;;24.50;99.90;;;;;;5090326;28;19908;-71
2021/06/11 07:00:03;;;;;;;;;;;24.80;99.90;;;;;;5082710;28;19919;-71
2021/06/11 07:02:29;;;;;;;;;;;25.20;99.90;;;;;;5090566;28;20352;-71
2021/06/11 07:04:54;;;;;;;;;;;25.40;99.90;;;;;;5090939;28;19950;-71
2021/06/11 07:07:20;;;;;;;;;;;25.90;99.90;;;;;;5090120;28;19912;-70
2021/06/11 07:09:45;;;;;;;;;;;26.20;99.90;;;;;;5090907;28;19908;-70
2021/06/11 07:12:11;;;;;;;;;;;26.50;99.90;;;;;;5091036;28;19943;-71
2021/06/11 07:14:36;;;;;;;;;;;26.20;99.90;;;;;;5090888;28;19997;-71
2021/06/11 07:17:05;;;;;;;;;;;26.30;99.90;;;;;;5089896;28;20396;-71
2021/06/11 07:19:31;;;;;;;;;;;26.50;99.90;;;;;;5090646;28;19912;-71
2021/06/11 07:21:56;;;;;;;;;;;26.70;99.90;;;;;;5090876;28;19908;-71
2021/06/11 07:24:22;;;;;;;;;;;26.90;99.90;;;;;;5090657;28;19919;-70
2021/06/11 07:26:47;;;;;;;;;;;27.10;99.90;;;;;;5090055;28;19914;-71
2021/06/11 07:29:13;;;;;;;;;;;27.20;99.90;;;;;;5081577;28;19909;-71
2021/06/11 07:31:38;;;;;;;;;;;27.30;99.90;;;;;;5090031;28;19961;-71
2021/06/11 07:34:04;;;;;;;;;;;27.50;99.90;;;;;;5090424;28;19912;-71
2021/06/11 07:36:29;;;;;;;;;;;27.70;99.90;;;;;;5089756;28;19930;-71
2021/06/11 07:38:55;;;;;;;;;;;27.90;99.90;;;;;;5090626;28;20395;-71
2021/06/11 07:41:21;;;;;;;;;;;27.90;99.90;;;;;;5061982;28;780858;-71
2021/06/11 07:43:50;;;;;;;;;;;27.80;99.90;;;;;;5091398;28;19999;-71
2021/06/11 07:46:16;;;;;;;;;;;27.70;99.90;;;;;;5090247;28;20281;-71
2021/06/11 07:48:41;;;;;;;;;;;27.70;99.90;;;;;;5091228;28;19969;-71
2021/06/11 07:51:07;;;;;;;;;;;27.70;99.90;;;;;;5091365;28;19909;-71
2021/06/11 07:53:32;;;;;;;;;;;27.90;99.90;;;;;;5091362;28;19919;-70
2021/06/11 07:55:58;;;;;;;;;;;28.30;99.90;;;;;;5090466;28;19912;-71
2021/06/11 07:58:23;;;;;;;;;;;28.50;98.80;;;;;;5090241;28;19908;-71
2021/06/11 08:00:49;;;;;;;;;;;28.60;99.30;;;;;;5091131;28;20040;-71
2021/06/11 08:03:14;;;;;;;;;;;28.60;99.90;;;;;;5099459;28;19966;-71
2021/06/11 08:05:40;;;;;;;;;;;28.70;99.90;;;;;;5070545;28;19916;-71
2021/06/11 08:08:06;;;;;;;;;;;28.60;99.90;;;;;;5070755;28;20266;-71
2021/06/11 08:10:31;;;;;;;;;;;28.70;99.90;;;;;;5090926;28;19914;-71
2021/06/11 08:12:57;;;;;;;;;;;29.00;98.10;;;;;;5091039;28;19908;-71
2021/06/11 08:15:22;;;;;;;;;;;28.90;98.40;;;;;;5090710;28;20325;-72
2021/06/11 08:17:48;;;;;;;;;;;28.70;97.90;;;;;;5090219;28;19916;-71
2021/06/11 08:20:14;;;;;;;;;;;28.70;98.50;;;;;;5090921;28;19952;-71
2021/06/11 08:22:39;;;;;;;;;;;28.60;97.80;;;;;;5090855;28;19912;-71
2021/06/11 08:25:06;;;;;;;;;;;28.50;98.50;;;;;;5091009;28;20361;-72
2021/06/11 08:27:32;;;;;;;;;;;28.50;98.20;;;;;;5089474;28;19963;-71
2021/06/11 08:29:57;;;;;;;;;;;28.50;98.90;;;;;;5082644;28;20373;-71
2021/06/11 08:32:23;;;;;;;;;;;28.70;99.20;;;;;;5090359;28;19950;-71
2021/06/11 08:34:48;;;;;;;;;;;28.60;98.10;;;;;;5090813;28;19911;-72
2021/06/11 08:37:14;;;;;;;;;;;28.70;98.30;;;;;;5090089;28;20330;-71
2021/06/11 08:39:39;;;;;;;;;;;28.80;97.70;;;;;;5090578;28;19909;-69
2021/06/11 08:42:05;;;;;;;;;;;28.90;98.40;;;;;;5093782;28;19912;-71
2021/06/11 08:44:31;;;;;;;;;;;29.00;98.20;;;;;;5094319;28;19908;-72
2021/06/11 08:46:57;;;;;;;;;;;29.10;95.80;;;;;;5093267;28;19931;-71
2021/06/11 08:49:24;;;;;;;;;;;29.20;96.00;;;;;;5094320;28;20392;-71
2021/06/11 08:51:52;;;;;;;;;;;29.00;96.80;;;;;;5094451;28;19915;-71
2021/06/11 08:54:18;;;;;;;;;;;29.20;97.50;;;;;;5094334;28;19908;-70
2021/06/11 08:56:44;;;;;;;;;;;29.20;97.50;;;;;;5093335;28;19935;-71
2021/06/11 08:59:09;;;;;;;;;;;29.40;95.30;;;;;;5086595;28;19915;-71
2021/06/11 09:01:35;;;;;;;;;;;29.70;97.30;;;;;;5092895;28;19920;-71
2021/06/11 09:04:00;;;;;;;;;;;29.80;95.70;;;;;;5094138;28;19951;-71
2021/06/11 09:06:26;;;;;;;;;;;29.70;95.10;;;;;;5093155;28;19939;-70
2021/06/11 09:08:55;;;;;;;;;;;29.90;96.90;;;;;;5093996;28;19960;-71
2021/06/11 09:11:26;;;;;;;;;;;29.80;95.10;;;;;;5094013;28;19912;-71
2021/06/11 09:13:54;;;;;;;;;;;29.60;97.60;;;;;;5093954;28;19912;-72
2021/06/11 09:16:21;;;;;;;;;;;29.60;96.70;;;;;;5092823;28;19995;-72
2021/06/11 09:18:47;;;;;;;;;;;29.90;97.10;;;;;;5093661;28;19931;-71
2021/06/11 09:21:26;;;;;;;;;;;30.20;98.00;;;;;;5093583;28;20377;-70
2021/06/11 09:26:40;;;;;;;;;;;30.80;96.80;;;;;;5093199;28;19961;-72
2021/06/11 09:29:17;;;;;;;;;;;31.10;94.20;;;;;;5086714;28;19908;-72
2021/06/11 09:31:43;;;;;;;;;;;31.40;94.80;;;;;;5085158;28;19916;-72
2021/06/11 09:34:18;;;;;;;;;;;31.60;92.90;;;;;;5093494;28;20285;-71
2021/06/11 09:37:26;;;;;;;;;;;31.70;94.50;;;;;;5092584;28;19908;-71
2021/06/11 09:39:51;;;;;;;;;;;31.80;94.00;;;;;;5050546;28;19917;-71
2021/06/11 09:42:18;;;;;;;;;;;31.60;94.10;;;;;;5050845;28;19995;-71
2021/06/11 09:44:54;;;;;;;;;;;31.80;93.20;;;;;;5071735;28;19914;-71
2021/06/11 09:47:29;;;;;;;;;;;31.80;94.60;;;;;;5091909;28;20017;-72
2021/06/11 09:49:54;;;;;;;;;;;31.90;94.20;;;;;;5093073;28;19908;-71
2021/06/11 09:52:20;;;;;;;;;;;32.00;90.00;;;;;;5092208;28;19991;-71
2021/06/11 09:54:45;;;;;;;;;;;31.60;88.90;;;;;;5092990;28;19930;-72
2021/06/11 09:57:32;;;;;;;;;;;31.50;92.50;;;;;;5092190;28;19921;-71
2021/06/11 09:59:58;;;;;;;;;;;31.20;90.30;;;;;;5084569;28;19919;-72
2021/06/11 10:02:23;;;;;;;;;;;31.10;91.10;;;;;;5092518;28;19908;-71
2021/06/11 10:04:49;;;;;;;;;;;31.00;89.90;;;;;;5092790;28;19908;-71
2021/06/11 10:07:15;;;;;;;;;;;30.60;90.70;;;;;;5092036;28;19908;-71
2021/06/11 10:09:41;;;;;;;;;;;30.40;85.90;;;;;;5091302;28;20362;-71
2021/06/11 10:12:07;;;;;;;;;;;30.60;92.00;;;;;;5092821;28;19912;-71
2021/06/11 10:14:33;;;;;;;;;;;31.30;92.50;;;;;;5092601;28;19912;-72
2021/06/11 10:16:59;;;;;;;;;;;31.80;91.80;;;;;;5091584;28;19999;-71
2021/06/11 10:19:25;;;;;;;;;;;32.20;84.30;;;;;;5092495;28;19946;-71
2021/06/11 10:21:51;;;;;;;;;;;32.10;83.40;;;;;;5092597;28;19916;-71
2021/06/11 10:24:19;;;;;;;;;;;32.10;87.10;;;;;;5092616;28;20004;-72
2021/06/11 10:26:45;;;;;;;;;;;32.30;83.70;;;;;;5091649;28;19915;-72
2021/06/11 10:29:15;;;;;;;;;;;32.40;83.20;;;;;;5084836;28;19913;-71
2021/06/11 10:31:40;;;;;;;;;;;32.60;80.50;;;;;;5091895;28;19971;-71
2021/06/11 10:34:06;;;;;;;;;;;32.80;86.30;;;;;;5092663;28;19908;-70
2021/06/11 10:36:42;;;;;;;;;;;32.70;80.20;;;;;;5091590;28;19914;-71
2021/06/11 10:39:10;;;;;;;;;;;32.90;78.60;;;;;;5092370;28;20360;-71
2021/06/11 10:41:55;;;;;;;;;;;32.60;83.70;;;;;;5091969;28;20266;-71
2021/06/11 10:44:38;;;;;;;;;;;32.10;78.70;;;;;;5092133;28;19919;-71
2021/06/11 10:47:16;;;;;;;;;;;31.80;78.40;;;;;;5091098;28;19912;-71
2021/06/11 10:50:00;;;;;;;;;;;31.40;80.80;;;;;;5091952;28;19919;-72
2021/06/11 10:52:32;;;;;;;;;;;31.00;83.70;;;;;;5092142;28;20380;-71
2021/06/11 10:55:18;;;;;;;;;;;30.80;86.10;;;;;;5091956;28;20407;-71
2021/06/11 10:58:05;;;;;;;;;;;31.00;84.10;;;;;;5083494;28;19915;-72
2021/06/11 11:00:31;;;;;;;;;;;30.90;82.60;;;;;;5084144;28;19919;-71
2021/06/11 11:02:58;;;;;;;;;;;31.10;82.90;;;;;;5091544;28;20593;-71
2021/06/11 11:05:27;;;;;;;;;;;31.50;86.10;;;;;;5091658;28;19915;-71
2021/06/11 11:07:52;;;;;;;;;;;31.60;82.70;;;;;;5090967;28;19943;-71
2021/06/11 11:10:44;;;;;;;;;;;31.00;78.80;;;;;;5091826;28;19954;-71
2021/06/11 11:13:11;;;;;;;;;;;30.50;79.20;;;;;;5086960;28;19909;-71
2021/06/11 11:15:41;;;;;;;;;;;30.40;84.30;;;;;;5091169;28;19961;-72
2021/06/11 11:18:08;;;;;;;;;;;30.70;84.00;;;;;;5091402;28;20396;-72
2021/06/11 11:20:35;;;;;;;;;;;31.00;80.50;;;;;;5091611;28;19912;-71
2021/06/11 11:23:02;;;;;;;;;;;31.40;84.60;;;;;;5091629;28;19916;-72
2021/06/11 11:25:28;;;;;;;;;;;31.90;77.90;;;;;;5091406;28;20365;-71
2021/06/11 11:27:54;;;;;;;;;;;32.20;78.10;;;;;;5090656;28;19966;-71
2021/06/11 11:30:23;;;;;;;;;;;32.10;75.30;;;;;;5083086;28;19908;-71
2021/06/11 11:32:48;;;;;;;;;;;32.10;73.20;;;;;;5091200;28;19962;-71
2021/06/11 11:35:16;;;;;;;;;;;32.10;74.60;;;;;;5091458;28;19908;-71
2021/06/11 11:37:42;;;;;;;;;;;32.10;71.30;;;;;;5090488;28;19934;-71
2021/06/11 11:40:08;;;;;;;;;;;31.90;71.80;;;;;;5091289;28;19916;-71
2021/06/11 11:42:33;;;;;;;;;;;31.20;74.10;;;;;;5091366;28;19912;-72
2021/06/11 11:44:59;;;;;;;;;;;30.50;76.00;;;;;;5091263;28;19909;-71
2021/06/11 11:47:25;;;;;;;;;;;30.00;77.00;;;;;;5090310;28;19985;-71
2021/06/11 11:49:50;;;;;;;;;;;29.70;75.80;;;;;;5091273;28;19916;-71
2021/06/11 11:52:16;;;;;;;;;;;29.40;79.40;;;;;;5091301;28;20326;-70
2021/06/11 11:54:41;;;;;;;;;;;29.20;79.50;;;;;;5091207;28;19908;-70
2021/06/11 11:57:07;;;;;;;;;;;29.30;87.40;;;;;;5090515;28;19908;-71
2021/06/11 11:59:32;;;;;;;;;;;29.80;86.80;;;;;;5082800;28;20281;-70
2021/06/11 12:01:58;;;;;;;;;;;30.10;80.10;;;;;;5090862;28;20004;-72
2021/06/11 12:04:23;;;;;;;;;;;30.40;76.60;;;;;;5091195;28;19912;-72
2021/06/11 12:06:49;;;;;;;;;;;30.70;78.00;;;;;;5090241;28;19978;-71
2021/06/11 12:09:15;;;;;;;;;;;30.90;75.00;;;;;;5090846;28;19947;-71
2021/06/11 12:11:41;;;;;;;;;;;30.90;80.20;;;;;;5091530;28;19912;-71
2021/06/11 12:14:06;;;;;;;;;;;31.20;77.40;;;;;;5091404;28;20286;-71
2021/06/11 12:16:32;;;;;;;;;;;31.50;78.90;;;;;;5092551;28;19994;-72
2021/06/11 12:18:58;;;;;;;;;;;32.00;74.00;;;;;;5094673;28;20163;-71
2021/06/11 12:21:24;;;;;;;;;;;32.10;72.50;;;;;;5094799;28;19912;-71
2021/06/11 12:23:50;;;;;;;;;;;32.10;73.10;;;;;;5094627;28;19908;-72
2021/06/11 12:26:16;;;;;;;;;;;31.80;71.80;;;;;;5076157;28;20425;-72
2021/06/11 12:28:41;;;;;;;;;;;31.50;74.80;;;;;;5074343;28;19919;-71
2021/06/11 12:31:07;;;;;;;;;;;30.90;73.70;;;;;;5090100;28;19908;-71
2021/06/11 12:33:33;;;;;;;;;;;30.40;77.00;;;;;;5094452;28;20293;-71
2021/06/11 12:35:59;;;;;;;;;;;30.20;81.30;;;;;;5093827;28;20022;-71
2021/06/11 12:38:24;;;;;;;;;;;30.40;81.60;;;;;;5094678;28;20608;-71
2021/06/11 12:40:52;;;;;;;;;;;30.30;77.30;;;;;;5094411;28;19917;-71
2021/06/11 12:43:26;;;;;;;;;;;30.30;77.50;;;;;;5094546;28;19939;-71
2021/06/11 12:45:52;;;;;;;;;;;30.50;73.70;;;;;;5093830;28;19912;-72
2021/06/11 12:48:17;;;;;;;;;;;30.60;74.10;;;;;;5094208;28;19908;-71
2021/06/11 12:50:43;;;;;;;;;;;30.80;72.20;;;;;;5094286;28;20705;-71
2021/06/11 12:53:08;;;;;;;;;;;31.10;74.30;;;;;;5094379;28;19910;-72
2021/06/11 12:55:39;;;;;;;;;;;31.20;75.00;;;;;;5094069;28;19915;-71
2021/06/11 12:58:05;;;;;;;;;;;31.40;72.30;;;;;;5094163;28;19908;-72
2021/06/11 13:00:30;;;;;;;;;;;31.50;71.90;;;;;;5085770;28;19916;-72
2021/06/11 13:02:56;;;;;;;;;;;31.60;72.00;;;;;;5093738;28;20500;-72
2021/06/11 13:05:22;;;;;;;;;;;31.60;69.80;;;;;;5094034;28;19908;-71
2021/06/11 13:07:48;;;;;;;;;;;31.50;67.40;;;;;;5093320;28;19908;-72
2021/06/11 13:10:14;;;;;;;;;;;31.60;70.00;;;;;;5094074;28;19909;-71
2021/06/11 13:12:39;;;;;;;;;;;31.60;71.50;;;;;;5093987;28;19915;-72
2021/06/11 13:15:05;;;;;;;;;;;31.80;73.20;;;;;;5093821;28;19908;-72
2021/06/11 13:17:31;;;;;;;;;;;32.10;70.10;;;;;;5092888;28;20008;-72
2021/06/11 13:19:56;;;;;;;;;;;32.30;66.80;;;;;;5093661;28;20061;-71
2021/06/11 13:22:22;;;;;;;;;;;32.40;67.80;;;;;;5093872;28;20388;-72
2021/06/11 13:24:47;;;;;;;;;;;32.70;71.80;;;;;;5093721;28;19912;-72
2021/06/11 13:27:13;;;;;;;;;;;33.00;71.70;;;;;;5092637;28;20296;-71
2021/06/11 13:29:38;;;;;;;;;;;33.20;67.10;;;;;;5085373;28;19990;-71
2021/06/11 13:32:04;;;;;;;;;;;33.20;66.40;;;;;;5093236;28;20326;-72
2021/06/11 13:34:29;;;;;;;;;;;32.70;67.40;;;;;;5093445;28;19912;-72
2021/06/11 13:36:55;;;;;;;;;;;32.50;71.20;;;;;;5092752;28;19915;-71
2021/06/11 13:39:20;;;;;;;;;;;32.10;68.60;;;;;;5093387;28;19912;-71
2021/06/11 13:41:46;;;;;;;;;;;31.60;70.40;;;;;;5091953;28;19916;-71
2021/06/11 13:44:11;;;;;;;;;;;30.90;70.30;;;;;;5093389;28;19951;-72
2021/06/11 13:46:37;;;;;;;;;;;30.30;72.00;;;;;;5092309;28;20354;-72
2021/06/11 13:49:02;;;;;;;;;;;29.90;72.20;;;;;;5093065;28;20250;-71
2021/06/11 13:51:28;;;;;;;;;;;29.80;73.10;;;;;;5093186;28;20353;-72
2021/06/11 13:53:53;;;;;;;;;;;30.10;72.70;;;;;;5093248;28;19915;-71
2021/06/11 13:56:20;;;;;;;;;;;30.40;70.80;;;;;;5092168;28;19909;-71
2021/06/11 13:58:46;;;;;;;;;;;30.60;70.10;;;;;;5088953;28;19916;-71
2021/06/11 14:01:11;;;;;;;;;;;30.70;68.60;;;;;;5088686;28;19912;-71
2021/06/11 14:03:37;;;;;;;;;;;30.90;75.00;;;;;;5092522;28;19908;-71
2021/06/11 14:06:02;;;;;;;;;;;31.20;66.20;;;;;;5092095;28;19912;-72
2021/06/11 14:08:28;;;;;;;;;;;31.50;66.40;;;;;;5092885;28;19985;-72
2021/06/11 14:10:54;;;;;;;;;;;31.60;62.30;;;;;;5093117;28;20403;-71
2021/06/11 14:13:22;;;;;;;;;;;31.80;62.80;;;;;;5092827;28;19962;-71
2021/06/11 14:15:48;;;;;;;;;;;31.90;63.80;;;;;;5091865;28;19908;-71
2021/06/11 14:18:14;;;;;;;;;;;32.10;71.30;;;;;;5092347;28;20002;-72